Historyczne dane pomiarowe

Dodano dane terminowe – wersja testowa.

Dane z okresu 1951-2019

Wersja bazy: 1.34 [2019-03-16, lista zmian], aktualizacja planowana na 2019-04-15

Dane meteo z obszaru Polski uzyskane na podstawie danych udostępnionych przez Instytut Meteorologii i Gospodarki Wodnej – Państwowy Instytut Badawczy.

 

Wybierz Datę:    

       

TemperaturaWilgotnośćWiatrCiśnienieOpadyŚniegCzas trwania zjawisk
 Stacja t tx tn tng RH VA  wxwx mslp ppp RRR   cm mm wxwxwxwxwxwxwx
1983-08-14 12.8 17.9 8.0- 83.3- 0.7 1.7---- 0.0------------
1983-08-13 14.9 19.8 10.9- 82.5- 3.3 2.7---- 2.1------------
1983-08-12 17.4 24.8 10.8- 75.3- 2.0 1.3---- 0.0------------
1983-08-11 17.1 23.3 10.8- 86.3- 0.3 0.0---- 0.3------------
1983-08-10 17.2 23.6 11.4- 77.0- 2.7 1.0---- 0.0------------
1983-08-09 17.2 23.7 11.1- 84.8- 3.7 0.0---- 0.4------------
1983-08-08 15.8 20.1 12.9- 89.3- 6.0 0.0---- 12.4------------
1983-08-07 13.5 16.7 11.0- 91.8- 2.7 1.3---- 1.4------------
1983-08-06 13.2 16.6 9.7- 82.5- 3.0 2.3---- 0.4------------
1983-08-05 11.2 13.3 7.6- 82.0- 1.7 0.7---- 0.0------------
1983-08-04 10.3 16.8 9.0- 92.3- 7.3 4.3---- 0.7------------
1983-08-03 18.0 21.2 15.7- 80.3- 5.3 1.7---- 2.7------------
1983-08-02 18.5 23.1 17.1- 87.8- 4.0 0.7---- 6.1------------
1983-08-01 18.8 30.1 8.6- 68.8- 0.3 0.3---- 0.0------------
1983-07-31 17.3 24.0 9.7- 68.5- 0.0 0.0---- 0.0------------
1983-07-30 17.3 22.0 13.0- 75.8- 0.3 0.0---- 0.0------------
1983-07-29 18.0 23.2 12.6- 74.3- 1.3 0.0---- 8.8------------
1983-07-28 21.9 26.0 17.8- 67.3- 1.7 2.7---- 0.0------------
1983-07-27 21.6 30.7 11.5- 62.3- 0.0 0.0---- 0.0------------
1983-07-26 18.4 26.1 10.0- 67.8- 0.0 0.0---- 0.0------------
1983-07-25 16.2 19.7 10.9- 72.8- 0.3 1.0---- 0.0------------
1983-07-24 16.7 22.8 9.0- 77.5- 0.3 1.7---- 2.5------------
1983-07-23 16.3 20.1 11.2- 77.8- 2.3 4.3---- 0.0------------
1983-07-22 11.1 15.6 7.3- 88.0- 6.7 4.7---- 5.5------------
1983-07-21 11.1 15.3 8.1- 74.0- 5.0 4.3---- 0.0------------
1983-07-20 15.6 23.4 11.0- 85.0- 2.0 3.7---- 2.3------------
1983-07-19 22.4 27.4 16.7- 62.8- 0.0 2.0---- 0.0------------
1983-07-18 22.4 30.0 14.0- 63.8- 0.0 1.3---- 0.2------------
1983-07-17 21.0 27.2 13.8- 66.5- 0.7 0.0---- 0.0------------
1983-07-16 19.4 26.5 11.9- 66.8- 0.7 0.0---- 0.0------------
1983-07-15 18.6 23.3 13.6- 72.5- 2.3 1.3---- 0.0------------
1983-07-14 15.4 21.1 14.0- 91.0- 7.0 2.7---- 31.3------------
1983-07-13 19.2 24.1 13.9- 75.0- 5.0 5.7---- 2.3------------
1983-07-12 16.8 22.0 13.5- 86.8- 4.7 3.7---- 20.0------------
1983-07-11 17.5 23.7 13.2- 75.8- 4.7 3.3---- 14.0------------
1983-07-10 22.0 27.0 12.0- 56.5- 1.0 0.3---- 0.0------------
1983-07-09 20.9 26.0 9.4- 55.5- 0.0 0.7---- 0.0------------
1983-07-08 20.6 25.3 12.6- 47.0- 0.0 0.0---- 0.0------------
1983-07-07 22.1 26.9 13.7- 58.8- 0.0 0.0---- 0.0------------
1983-07-06 21.3 25.1 12.5- 67.5- 1.7 1.0---- 0.0------------
1983-07-05 20.3 24.9 10.6- 71.5- 0.0 0.0---- 0.0------------
1983-07-04 20.2 24.5 10.1- 67.0- 0.0 0.7---- 0.0------------
1983-07-03 19.0 22.6 9.8- 67.5- 0.3 0.0---- 0.0------------
1983-07-02 16.9 20.6 11.6- 81.5- 6.0 2.3---- 0.0------------
1983-07-01 19.8 24.7 10.7- 60.5- 1.0 2.0---- 0.0------------
1983-06-30 15.4 21.6 4.8- 64.0- 0.7 0.3---- 0.0------------
1983-06-29 12.6 17.4 5.9- 61.0- 0.3 1.0---- 0.0------------
1983-06-28 14.0 17.4 11.9- 92.0- 6.3 1.3---- 3.8------------
1983-06-27 19.7 25.2 13.6- 66.0- 1.0 0.0---- 15.1------------
1983-06-26 20.1 25.6 13.7- 63.3- 1.3 0.7---- 0.0------------
1983-06-25 20.3 25.7 13.2- 57.3- 0.0 0.0---- 1.1------------
1983-06-24 17.1 24.6 6.2- 57.8- 0.0 0.7---- 0.0------------
1983-06-23 15.3 20.7 5.2- 64.5- 0.0 0.3---- 0.0------------
1983-06-22 16.6 20.4 10.9- 73.5- 0.0 5.3---- 0.0------------
1983-06-21 17.5 23.4 12.6- 81.0- 5.3 0.3---- 0.0------------
1983-06-20 15.7 17.3 13.7- 95.5- 7.3 1.7---- 3.0------------
1983-06-19 12.8 15.6 9.6- 97.3- 8.0 2.7---- 33.0------------
1983-06-18 10.1 13.0 7.4- 93.3- 7.3 2.7---- 10.0------------
1983-06-17 10.3 12.0 8.0- 86.5- 7.7 2.7---- 5.2------------
1983-06-16 9.4 10.4 6.3- 87.3- 7.3 4.7---- 2.1------------
310.1 ms

 

Źródłem pochodzenia danych jest Instytut Meteorologii i Gospodarki Wodnej – Państwowy Instytut Badawczy. Dane Instytutu Meteorologii i Gospodarki Wodnej – Państwowego Instytutu Badawczego zostały przetworzone.

Dane źródłowe można odnaleźć na stronie https://dane.imgw.pl